sensor_id;sensor_type;location;lat;lon;timestamp;P1;durP1;ratioP1;P2;durP2;ratioP2
22646;SDS011;11490;42.726;23.268;2023-07-29T00:02:02;5.22;;;3.03;;
22646;SDS011;11490;42.726;23.268;2023-07-29T00:04:27;5.38;;;2.50;;
22646;SDS011;11490;42.726;23.268;2023-07-29T00:06:53;2.90;;;2.47;;
22646;SDS011;11490;42.726;23.268;2023-07-29T00:09:18;3.65;;;2.42;;
22646;SDS011;11490;42.726;23.268;2023-07-29T00:11:44;3.33;;;2.30;;
22646;SDS011;11490;42.726;23.268;2023-07-29T00:14:09;5.78;;;2.33;;
22646;SDS011;11490;42.726;23.268;2023-07-29T00:16:34;7.03;;;2.83;;
22646;SDS011;11490;42.726;23.268;2023-07-29T00:19:00;4.85;;;2.55;;
22646;SDS011;11490;42.726;23.268;2023-07-29T00:21:25;4.65;;;2.50;;
22646;SDS011;11490;42.726;23.268;2023-07-29T00:23:51;3.40;;;2.10;;
22646;SDS011;11490;42.726;23.268;2023-07-29T00:26:16;3.35;;;1.98;;
22646;SDS011;11490;42.726;23.268;2023-07-29T00:28:42;3.63;;;2.58;;
22646;SDS011;11490;42.726;23.268;2023-07-29T00:31:07;6.03;;;2.70;;
22646;SDS011;11490;42.726;23.268;2023-07-29T00:33:32;3.88;;;2.38;;
22646;SDS011;11490;42.726;23.268;2023-07-29T00:35:58;3.55;;;2.30;;
22646;SDS011;11490;42.726;23.268;2023-07-29T00:38:26;3.38;;;2.67;;
22646;SDS011;11490;42.726;23.268;2023-07-29T00:40:52;4.60;;;2.35;;
22646;SDS011;11490;42.726;23.268;2023-07-29T00:43:17;5.00;;;2.88;;
22646;SDS011;11490;42.726;23.268;2023-07-29T00:45:43;5.15;;;2.42;;
22646;SDS011;11490;42.726;23.268;2023-07-29T00:48:10;4.30;;;2.50;;
22646;SDS011;11490;42.726;23.268;2023-07-29T00:50:35;3.22;;;2.08;;
22646;SDS011;11490;42.726;23.268;2023-07-29T00:53:01;3.55;;;2.33;;
22646;SDS011;11490;42.726;23.268;2023-07-29T00:55:26;3.92;;;2.03;;
22646;SDS011;11490;42.726;23.268;2023-07-29T00:57:53;3.40;;;2.58;;
22646;SDS011;11490;42.726;23.268;2023-07-29T01:00:20;3.08;;;2.30;;
22646;SDS011;11490;42.726;23.268;2023-07-29T01:02:46;4.15;;;2.20;;
22646;SDS011;11490;42.726;23.268;2023-07-29T01:05:12;7.82;;;3.33;;
22646;SDS011;11490;42.726;23.268;2023-07-29T01:13:44;4.07;;;2.85;;
22646;SDS011;11490;42.726;23.268;2023-07-29T01:16:33;3.50;;;2.40;;
22646;SDS011;11490;42.726;23.268;2023-07-29T01:19:07;3.05;;;2.30;;
22646;SDS011;11490;42.726;23.268;2023-07-29T01:21:59;3.33;;;2.17;;
22646;SDS011;11490;42.726;23.268;2023-07-29T01:24:26;3.00;;;2.15;;
22646;SDS011;11490;42.726;23.268;2023-07-29T01:26:51;2.75;;;2.17;;
22646;SDS011;11490;42.726;23.268;2023-07-29T01:29:17;3.40;;;2.60;;
22646;SDS011;11490;42.726;23.268;2023-07-29T01:31:45;4.38;;;2.70;;
22646;SDS011;11490;42.726;23.268;2023-07-29T01:34:22;5.57;;;2.60;;
22646;SDS011;11490;42.726;23.268;2023-07-29T01:36:54;4.43;;;2.70;;
22646;SDS011;11490;42.726;23.268;2023-07-29T01:39:24;5.35;;;2.30;;
22646;SDS011;11490;42.726;23.268;2023-07-29T01:41:53;3.60;;;2.80;;
22646;SDS011;11490;42.726;23.268;2023-07-29T01:44:18;3.75;;;2.40;;
22646;SDS011;11490;42.726;23.268;2023-07-29T01:46:44;3.28;;;2.35;;
22646;SDS011;11490;42.726;23.268;2023-07-29T01:49:09;3.63;;;2.10;;
22646;SDS011;11490;42.726;23.268;2023-07-29T01:51:35;3.55;;;2.25;;
22646;SDS011;11490;42.726;23.268;2023-07-29T01:54:00;3.17;;;2.50;;
22646;SDS011;11490;42.726;23.268;2023-07-29T01:56:26;5.60;;;2.70;;
22646;SDS011;11490;42.726;23.268;2023-07-29T01:58:51;3.53;;;2.65;;
22646;SDS011;11490;42.726;23.268;2023-07-29T02:01:17;11.73;;;2.92;;
22646;SDS011;11490;42.726;23.268;2023-07-29T02:03:43;4.32;;;2.70;;
22646;SDS011;11490;42.726;23.268;2023-07-29T02:06:08;3.97;;;2.58;;
22646;SDS011;11490;42.726;23.268;2023-07-29T02:08:34;3.50;;;2.15;;
22646;SDS011;11490;42.726;23.268;2023-07-29T02:11:00;8.23;;;3.45;;
22646;SDS011;11490;42.726;23.268;2023-07-29T02:13:25;3.78;;;2.50;;
22646;SDS011;11490;42.726;23.268;2023-07-29T02:15:50;4.13;;;2.38;;
22646;SDS011;11490;42.726;23.268;2023-07-29T02:18:16;7.75;;;2.60;;
22646;SDS011;11490;42.726;23.268;2023-07-29T02:20:42;3.40;;;2.60;;
22646;SDS011;11490;42.726;23.268;2023-07-29T02:23:14;7.55;;;3.70;;
22646;SDS011;11490;42.726;23.268;2023-07-29T02:25:39;4.18;;;2.28;;
22646;SDS011;11490;42.726;23.268;2023-07-29T02:28:05;3.90;;;3.00;;
22646;SDS011;11490;42.726;23.268;2023-07-29T02:30:30;3.75;;;2.35;;
22646;SDS011;11490;42.726;23.268;2023-07-29T02:32:56;3.83;;;2.40;;
22646;SDS011;11490;42.726;23.268;2023-07-29T02:35:21;3.53;;;2.70;;
22646;SDS011;11490;42.726;23.268;2023-07-29T02:37:46;3.92;;;2.55;;
22646;SDS011;11490;42.726;23.268;2023-07-29T02:40:12;3.22;;;2.13;;
22646;SDS011;11490;42.726;23.268;2023-07-29T02:42:37;3.95;;;2.65;;
22646;SDS011;11490;42.726;23.268;2023-07-29T02:45:03;3.47;;;2.58;;
22646;SDS011;11490;42.726;23.268;2023-07-29T02:47:29;10.02;;;3.28;;
22646;SDS011;11490;42.726;23.268;2023-07-29T02:49:54;3.45;;;2.30;;
22646;SDS011;11490;42.726;23.268;2023-07-29T02:52:20;4.88;;;2.63;;
22646;SDS011;11490;42.726;23.268;2023-07-29T02:54:45;5.57;;;3.17;;
22646;SDS011;11490;42.726;23.268;2023-07-29T02:57:13;2.78;;;2.03;;
22646;SDS011;11490;42.726;23.268;2023-07-29T02:59:38;3.70;;;2.30;;
22646;SDS011;11490;42.726;23.268;2023-07-29T03:02:04;3.20;;;2.58;;
22646;SDS011;11490;42.726;23.268;2023-07-29T03:04:29;5.63;;;2.30;;
22646;SDS011;11490;42.726;23.268;2023-07-29T03:06:55;4.63;;;2.95;;
22646;SDS011;11490;42.726;23.268;2023-07-29T03:09:20;4.35;;;2.95;;
22646;SDS011;11490;42.726;23.268;2023-07-29T03:11:45;4.43;;;3.08;;
22646;SDS011;11490;42.726;23.268;2023-07-29T03:14:11;4.43;;;2.47;;
22646;SDS011;11490;42.726;23.268;2023-07-29T03:16:36;5.10;;;2.72;;
22646;SDS011;11490;42.726;23.268;2023-07-29T03:19:02;3.70;;;2.28;;
22646;SDS011;11490;42.726;23.268;2023-07-29T03:21:27;10.10;;;2.65;;
22646;SDS011;11490;42.726;23.268;2023-07-29T03:23:53;8.13;;;5.47;;
22646;SDS011;11490;42.726;23.268;2023-07-29T03:26:18;7.20;;;3.30;;
22646;SDS011;11490;42.726;23.268;2023-07-29T03:28:43;4.55;;;2.92;;
22646;SDS011;11490;42.726;23.268;2023-07-29T03:31:09;4.40;;;3.13;;
22646;SDS011;11490;42.726;23.268;2023-07-29T03:33:35;5.80;;;2.45;;
22646;SDS011;11490;42.726;23.268;2023-07-29T03:36:01;3.70;;;2.78;;
22646;SDS011;11490;42.726;23.268;2023-07-29T03:38:27;3.88;;;2.50;;
22646;SDS011;11490;42.726;23.268;2023-07-29T03:40:52;3.78;;;2.50;;
22646;SDS011;11490;42.726;23.268;2023-07-29T03:43:18;3.53;;;2.38;;
22646;SDS011;11490;42.726;23.268;2023-07-29T03:45:44;8.82;;;2.65;;
22646;SDS011;11490;42.726;23.268;2023-07-29T03:48:09;7.20;;;3.25;;
22646;SDS011;11490;42.726;23.268;2023-07-29T03:50:35;4.97;;;2.88;;
22646;SDS011;11490;42.726;23.268;2023-07-29T03:53:04;5.40;;;2.95;;
22646;SDS011;11490;42.726;23.268;2023-07-29T03:55:29;3.88;;;2.85;;
22646;SDS011;11490;42.726;23.268;2023-07-29T03:57:56;3.90;;;2.40;;
22646;SDS011;11490;42.726;23.268;2023-07-29T04:00:25;5.32;;;2.60;;
22646;SDS011;11490;42.726;23.268;2023-07-29T04:02:50;5.32;;;3.67;;
22646;SDS011;11490;42.726;23.268;2023-07-29T04:05:16;12.45;;;2.70;;
22646;SDS011;11490;42.726;23.268;2023-07-29T04:07:42;4.13;;;2.80;;
22646;SDS011;11490;42.726;23.268;2023-07-29T04:10:08;11.65;;;3.00;;
22646;SDS011;11490;42.726;23.268;2023-07-29T04:12:33;13.85;;;3.35;;
22646;SDS011;11490;42.726;23.268;2023-07-29T04:14:59;4.38;;;2.70;;
22646;SDS011;11490;42.726;23.268;2023-07-29T04:17:24;4.95;;;3.22;;
22646;SDS011;11490;42.726;23.268;2023-07-29T04:19:49;3.97;;;2.70;;
22646;SDS011;11490;42.726;23.268;2023-07-29T04:22:15;4.80;;;3.10;;
22646;SDS011;11490;42.726;23.268;2023-07-29T04:24:41;8.05;;;2.72;;
22646;SDS011;11490;42.726;23.268;2023-07-29T04:27:06;3.08;;;2.50;;
22646;SDS011;11490;42.726;23.268;2023-07-29T04:29:32;4.65;;;3.22;;
22646;SDS011;11490;42.726;23.268;2023-07-29T04:31:57;4.55;;;3.20;;
22646;SDS011;11490;42.726;23.268;2023-07-29T04:34:22;5.32;;;3.58;;
22646;SDS011;11490;42.726;23.268;2023-07-29T04:36:48;3.42;;;2.53;;
22646;SDS011;11490;42.726;23.268;2023-07-29T04:39:14;8.75;;;2.80;;
22646;SDS011;11490;42.726;23.268;2023-07-29T04:41:39;4.50;;;2.90;;
22646;SDS011;11490;42.726;23.268;2023-07-29T04:44:06;3.03;;;2.45;;
22646;SDS011;11490;42.726;23.268;2023-07-29T04:46:31;3.92;;;2.67;;
22646;SDS011;11490;42.726;23.268;2023-07-29T04:48:57;4.43;;;2.85;;
22646;SDS011;11490;42.726;23.268;2023-07-29T04:51:23;3.28;;;2.70;;
22646;SDS011;11490;42.726;23.268;2023-07-29T04:53:49;3.42;;;2.90;;
22646;SDS011;11490;42.726;23.268;2023-07-29T04:56:15;3.47;;;2.60;;
22646;SDS011;11490;42.726;23.268;2023-07-29T04:58:40;4.82;;;2.78;;
22646;SDS011;11490;42.726;23.268;2023-07-29T05:01:06;3.83;;;2.97;;
22646;SDS011;11490;42.726;23.268;2023-07-29T05:03:31;3.50;;;2.70;;
22646;SDS011;11490;42.726;23.268;2023-07-29T05:05:57;4.95;;;3.63;;
22646;SDS011;11490;42.726;23.268;2023-07-29T05:08:24;4.13;;;2.70;;
22646;SDS011;11490;42.726;23.268;2023-07-29T05:10:51;5.80;;;3.28;;
22646;SDS011;11490;42.726;23.268;2023-07-29T05:13:18;13.85;;;3.63;;
22646;SDS011;11490;42.726;23.268;2023-07-29T05:15:43;4.70;;;3.42;;
22646;SDS011;11490;42.726;23.268;2023-07-29T05:18:09;5.10;;;2.95;;
22646;SDS011;11490;42.726;23.268;2023-07-29T05:20:34;4.93;;;2.97;;
22646;SDS011;11490;42.726;23.268;2023-07-29T05:22:59;4.50;;;3.15;;
22646;SDS011;11490;42.726;23.268;2023-07-29T05:25:25;5.40;;;3.35;;
22646;SDS011;11490;42.726;23.268;2023-07-29T05:27:51;10.00;;;3.92;;
22646;SDS011;11490;42.726;23.268;2023-07-29T05:30:18;7.85;;;3.28;;
22646;SDS011;11490;42.726;23.268;2023-07-29T05:32:43;4.32;;;2.88;;
22646;SDS011;11490;42.726;23.268;2023-07-29T05:35:09;6.20;;;3.25;;
22646;SDS011;11490;42.726;23.268;2023-07-29T05:37:37;4.75;;;3.55;;
22646;SDS011;11490;42.726;23.268;2023-07-29T05:40:03;4.93;;;2.90;;
22646;SDS011;11490;42.726;23.268;2023-07-29T05:42:29;4.65;;;3.75;;
22646;SDS011;11490;42.726;23.268;2023-07-29T05:44:55;5.53;;;2.78;;
22646;SDS011;11490;42.726;23.268;2023-07-29T05:47:20;4.05;;;2.88;;
22646;SDS011;11490;42.726;23.268;2023-07-29T05:49:45;5.38;;;3.35;;
22646;SDS011;11490;42.726;23.268;2023-07-29T05:52:11;5.32;;;3.45;;
22646;SDS011;11490;42.726;23.268;2023-07-29T05:54:36;6.95;;;3.30;;
22646;SDS011;11490;42.726;23.268;2023-07-29T05:57:02;8.52;;;4.13;;
22646;SDS011;11490;42.726;23.268;2023-07-29T05:59:27;5.47;;;2.83;;
22646;SDS011;11490;42.726;23.268;2023-07-29T06:01:54;5.30;;;3.80;;
22646;SDS011;11490;42.726;23.268;2023-07-29T06:04:20;8.60;;;3.42;;
22646;SDS011;11490;42.726;23.268;2023-07-29T06:06:45;5.05;;;3.65;;
22646;SDS011;11490;42.726;23.268;2023-07-29T06:09:10;4.97;;;3.33;;
22646;SDS011;11490;42.726;23.268;2023-07-29T06:11:36;4.75;;;3.20;;
22646;SDS011;11490;42.726;23.268;2023-07-29T06:14:01;5.65;;;3.08;;
22646;SDS011;11490;42.726;23.268;2023-07-29T06:16:26;6.50;;;4.65;;
22646;SDS011;11490;42.726;23.268;2023-07-29T06:18:52;4.32;;;3.05;;
22646;SDS011;11490;42.726;23.268;2023-07-29T06:21:17;7.07;;;3.60;;
22646;SDS011;11490;42.726;23.268;2023-07-29T06:23:45;8.45;;;3.60;;
22646;SDS011;11490;42.726;23.268;2023-07-29T06:26:13;5.70;;;3.15;;
22646;SDS011;11490;42.726;23.268;2023-07-29T06:28:38;6.32;;;3.40;;
22646;SDS011;11490;42.726;23.268;2023-07-29T06:31:08;4.60;;;3.20;;
22646;SDS011;11490;42.726;23.268;2023-07-29T06:33:34;8.52;;;3.88;;
22646;SDS011;11490;42.726;23.268;2023-07-29T06:36:00;5.63;;;3.50;;
22646;SDS011;11490;42.726;23.268;2023-07-29T06:38:25;5.03;;;3.35;;
22646;SDS011;11490;42.726;23.268;2023-07-29T06:40:50;4.85;;;3.50;;
22646;SDS011;11490;42.726;23.268;2023-07-29T06:43:16;6.07;;;3.35;;
22646;SDS011;11490;42.726;23.268;2023-07-29T06:45:42;8.23;;;3.28;;
22646;SDS011;11490;42.726;23.268;2023-07-29T06:48:08;5.10;;;3.70;;
22646;SDS011;11490;42.726;23.268;2023-07-29T06:50:33;6.45;;;4.22;;
22646;SDS011;11490;42.726;23.268;2023-07-29T06:52:59;4.88;;;3.40;;
22646;SDS011;11490;42.726;23.268;2023-07-29T06:55:24;6.53;;;2.97;;
22646;SDS011;11490;42.726;23.268;2023-07-29T06:57:49;6.53;;;3.65;;
22646;SDS011;11490;42.726;23.268;2023-07-29T07:00:15;7.82;;;3.00;;
22646;SDS011;11490;42.726;23.268;2023-07-29T07:02:40;6.75;;;3.10;;
22646;SDS011;11490;42.726;23.268;2023-07-29T07:05:06;5.20;;;3.40;;
22646;SDS011;11490;42.726;23.268;2023-07-29T07:07:32;6.53;;;2.80;;
22646;SDS011;11490;42.726;23.268;2023-07-29T07:10:10;7.15;;;3.60;;
22646;SDS011;11490;42.726;23.268;2023-07-29T07:12:35;5.55;;;3.08;;
22646;SDS011;11490;42.726;23.268;2023-07-29T07:15:01;6.30;;;3.08;;
22646;SDS011;11490;42.726;23.268;2023-07-29T07:17:30;5.85;;;3.15;;
22646;SDS011;11490;42.726;23.268;2023-07-29T07:19:58;7.97;;;3.53;;
22646;SDS011;11490;42.726;23.268;2023-07-29T07:22:23;5.65;;;2.75;;
22646;SDS011;11490;42.726;23.268;2023-07-29T07:24:49;4.93;;;3.00;;
22646;SDS011;11490;42.726;23.268;2023-07-29T07:27:17;4.40;;;2.70;;
22646;SDS011;11490;42.726;23.268;2023-07-29T07:29:43;3.75;;;2.30;;
22646;SDS011;11490;42.726;23.268;2023-07-29T07:32:08;5.20;;;2.95;;
22646;SDS011;11490;42.726;23.268;2023-07-29T07:37:09;4.40;;;2.80;;
22646;SDS011;11490;42.726;23.268;2023-07-29T07:39:34;4.95;;;2.83;;
22646;SDS011;11490;42.726;23.268;2023-07-29T07:42:00;4.45;;;2.85;;
22646;SDS011;11490;42.726;23.268;2023-07-29T07:44:25;3.83;;;2.70;;
22646;SDS011;11490;42.726;23.268;2023-07-29T07:46:57;3.00;;;2.20;;
22646;SDS011;11490;42.726;23.268;2023-07-29T07:49:24;4.40;;;2.88;;
22646;SDS011;11490;42.726;23.268;2023-07-29T07:51:50;3.83;;;2.58;;
22646;SDS011;11490;42.726;23.268;2023-07-29T07:54:15;3.33;;;2.35;;
22646;SDS011;11490;42.726;23.268;2023-07-29T07:56:48;8.73;;;2.72;;
22646;SDS011;11490;42.726;23.268;2023-07-29T07:59:13;5.18;;;2.50;;
22646;SDS011;11490;42.726;23.268;2023-07-29T08:01:39;3.28;;;2.08;;
22646;SDS011;11490;42.726;23.268;2023-07-29T08:04:14;2.95;;;2.38;;
22646;SDS011;11490;42.726;23.268;2023-07-29T08:06:45;2.67;;;1.90;;
22646;SDS011;11490;42.726;23.268;2023-07-29T08:09:10;2.78;;;1.90;;
22646;SDS011;11490;42.726;23.268;2023-07-29T08:11:35;5.22;;;2.20;;
22646;SDS011;11490;42.726;23.268;2023-07-29T08:14:07;4.20;;;2.70;;
22646;SDS011;11490;42.726;23.268;2023-07-29T08:16:32;3.88;;;2.30;;
22646;SDS011;11490;42.726;23.268;2023-07-29T08:18:58;3.53;;;2.30;;
22646;SDS011;11490;42.726;23.268;2023-07-29T08:21:23;7.00;;;2.03;;
22646;SDS011;11490;42.726;23.268;2023-07-29T08:23:49;3.33;;;2.25;;
22646;SDS011;11490;42.726;23.268;2023-07-29T08:26:14;3.28;;;2.10;;
22646;SDS011;11490;42.726;23.268;2023-07-29T08:28:47;3.28;;;1.80;;
22646;SDS011;11490;42.726;23.268;2023-07-29T08:31:13;3.35;;;1.95;;
22646;SDS011;11490;42.726;23.268;2023-07-29T08:33:39;5.15;;;2.10;;
22646;SDS011;11490;42.726;23.268;2023-07-29T08:36:04;5.95;;;2.40;;
22646;SDS011;11490;42.726;23.268;2023-07-29T08:38:30;3.13;;;1.80;;
22646;SDS011;11490;42.726;23.268;2023-07-29T08:41:04;2.40;;;1.83;;
22646;SDS011;11490;42.726;23.268;2023-07-29T08:43:56;2.75;;;1.85;;
22646;SDS011;11490;42.726;23.268;2023-07-29T08:46:31;2.40;;;1.77;;
22646;SDS011;11490;42.726;23.268;2023-07-29T08:48:57;5.40;;;2.28;;
22646;SDS011;11490;42.726;23.268;2023-07-29T08:51:24;2.95;;;1.50;;
22646;SDS011;11490;42.726;23.268;2023-07-29T08:53:52;3.78;;;1.65;;
22646;SDS011;11490;42.726;23.268;2023-07-29T08:56:20;2.40;;;1.50;;
22646;SDS011;11490;42.726;23.268;2023-07-29T08:58:46;3.65;;;1.88;;
22646;SDS011;11490;42.726;23.268;2023-07-29T09:01:12;1.77;;;1.25;;
22646;SDS011;11490;42.726;23.268;2023-07-29T09:03:38;1.85;;;1.40;;
22646;SDS011;11490;42.726;23.268;2023-07-29T09:06:03;2.63;;;1.33;;
22646;SDS011;11490;42.726;23.268;2023-07-29T09:08:29;2.10;;;1.35;;
22646;SDS011;11490;42.726;23.268;2023-07-29T09:10:54;2.00;;;1.33;;
22646;SDS011;11490;42.726;23.268;2023-07-29T09:13:20;1.83;;;1.40;;
22646;SDS011;11490;42.726;23.268;2023-07-29T09:15:46;2.10;;;1.20;;
22646;SDS011;11490;42.726;23.268;2023-07-29T09:18:12;2.80;;;1.40;;
22646;SDS011;11490;42.726;23.268;2023-07-29T09:20:43;3.15;;;1.67;;
22646;SDS011;11490;42.726;23.268;2023-07-29T09:23:09;4.60;;;1.95;;
22646;SDS011;11490;42.726;23.268;2023-07-29T09:25:40;1.77;;;1.40;;
22646;SDS011;11490;42.726;23.268;2023-07-29T09:28:10;2.60;;;1.60;;
22646;SDS011;11490;42.726;23.268;2023-07-29T09:30:41;2.10;;;1.33;;
22646;SDS011;11490;42.726;23.268;2023-07-29T09:33:08;4.82;;;1.42;;
22646;SDS011;11490;42.726;23.268;2023-07-29T09:35:35;1.40;;;1.05;;
22646;SDS011;11490;42.726;23.268;2023-07-29T09:38:02;2.38;;;1.17;;
22646;SDS011;11490;42.726;23.268;2023-07-29T09:40:38;1.38;;;0.80;;
22646;SDS011;11490;42.726;23.268;2023-07-29T09:43:05;2.30;;;1.02;;
22646;SDS011;11490;42.726;23.268;2023-07-29T09:45:33;12.50;;;2.00;;
22646;SDS011;11490;42.726;23.268;2023-07-29T09:48:00;1.20;;;0.73;;
22646;SDS011;11490;42.726;23.268;2023-07-29T09:50:26;1.08;;;0.70;;
22646;SDS011;11490;42.726;23.268;2023-07-29T09:52:53;1.90;;;1.10;;
22646;SDS011;11490;42.726;23.268;2023-07-29T09:55:21;2.72;;;0.70;;
22646;SDS011;11490;42.726;23.268;2023-07-29T09:57:47;0.80;;;0.60;;
22646;SDS011;11490;42.726;23.268;2023-07-29T10:00:13;2.60;;;0.70;;
22646;SDS011;11490;42.726;23.268;2023-07-29T10:02:42;1.10;;;0.85;;
22646;SDS011;11490;42.726;23.268;2023-07-29T10:05:08;1.55;;;1.10;;
22646;SDS011;11490;42.726;23.268;2023-07-29T10:07:38;1.40;;;0.90;;
22646;SDS011;11490;42.726;23.268;2023-07-29T10:10:04;0.90;;;0.70;;
22646;SDS011;11490;42.726;23.268;2023-07-29T10:12:32;1.63;;;0.90;;
22646;SDS011;11490;42.726;23.268;2023-07-29T10:15:05;2.10;;;0.90;;
22646;SDS011;11490;42.726;23.268;2023-07-29T10:17:35;1.63;;;0.90;;
22646;SDS011;11490;42.726;23.268;2023-07-29T10:20:07;2.22;;;0.90;;
22646;SDS011;11490;42.726;23.268;2023-07-29T10:22:45;5.25;;;1.10;;
22646;SDS011;11490;42.726;23.268;2023-07-29T10:25:15;1.85;;;1.30;;
22646;SDS011;11490;42.726;23.268;2023-07-29T10:30:15;1.85;;;1.00;;
22646;SDS011;11490;42.726;23.268;2023-07-29T10:32:41;1.75;;;1.00;;
22646;SDS011;11490;42.726;23.268;2023-07-29T10:35:11;0.98;;;0.73;;
22646;SDS011;11490;42.726;23.268;2023-07-29T10:37:38;1.90;;;0.80;;
22646;SDS011;11490;42.726;23.268;2023-07-29T10:40:06;0.85;;;0.60;;
22646;SDS011;11490;42.726;23.268;2023-07-29T10:42:32;0.85;;;0.70;;
22646;SDS011;11490;42.726;23.268;2023-07-29T10:44:58;1.35;;;0.80;;
22646;SDS011;11490;42.726;23.268;2023-07-29T10:47:42;0.73;;;0.57;;
22646;SDS011;11490;42.726;23.268;2023-07-29T10:50:16;1.15;;;0.65;;
22646;SDS011;11490;42.726;23.268;2023-07-29T10:52:42;4.57;;;0.82;;
22646;SDS011;11490;42.726;23.268;2023-07-29T10:55:24;0.85;;;0.40;;
22646;SDS011;11490;42.726;23.268;2023-07-29T10:58:07;1.23;;;0.70;;
22646;SDS011;11490;42.726;23.268;2023-07-29T11:00:45;2.15;;;0.77;;
22646;SDS011;11490;42.726;23.268;2023-07-29T11:03:12;0.90;;;0.60;;
22646;SDS011;11490;42.726;23.268;2023-07-29T11:08:27;1.30;;;0.60;;
22646;SDS011;11490;42.726;23.268;2023-07-29T11:11:01;0.77;;;0.68;;
22646;SDS011;11490;42.726;23.268;2023-07-29T11:13:27;1.55;;;0.75;;
22646;SDS011;11490;42.726;23.268;2023-07-29T11:15:54;1.42;;;0.73;;
22646;SDS011;11490;42.726;23.268;2023-07-29T11:18:21;0.90;;;0.65;;
22646;SDS011;11490;42.726;23.268;2023-07-29T11:20:47;1.23;;;0.75;;
22646;SDS011;11490;42.726;23.268;2023-07-29T11:23:13;0.80;;;0.75;;
22646;SDS011;11490;42.726;23.268;2023-07-29T11:25:40;0.90;;;0.55;;
22646;SDS011;11490;42.726;23.268;2023-07-29T11:28:05;1.80;;;0.60;;
22646;SDS011;11490;42.726;23.268;2023-07-29T11:30:31;1.08;;;0.80;;
22646;SDS011;11490;42.726;23.268;2023-07-29T11:32:57;1.90;;;0.77;;
22646;SDS011;11490;42.726;23.268;2023-07-29T11:35:23;1.13;;;0.70;;
22646;SDS011;11490;42.726;23.268;2023-07-29T11:37:49;1.30;;;0.68;;
22646;SDS011;11490;42.726;23.268;2023-07-29T11:40:20;1.35;;;0.70;;
22646;SDS011;11490;42.726;23.268;2023-07-29T11:42:47;2.35;;;0.88;;
22646;SDS011;11490;42.726;23.268;2023-07-29T11:45:15;2.63;;;0.95;;
22646;SDS011;11490;42.726;23.268;2023-07-29T11:47:41;1.27;;;0.60;;
22646;SDS011;11490;42.726;23.268;2023-07-29T11:50:07;1.05;;;0.77;;
22646;SDS011;11490;42.726;23.268;2023-07-29T11:52:42;1.25;;;0.80;;
22646;SDS011;11490;42.726;23.268;2023-07-29T11:55:09;1.30;;;0.80;;
22646;SDS011;11490;42.726;23.268;2023-07-29T11:57:35;0.80;;;0.60;;
22646;SDS011;11490;42.726;23.268;2023-07-29T12:00:03;1.80;;;0.77;;
22646;SDS011;11490;42.726;23.268;2023-07-29T12:02:31;1.23;;;0.80;;
22646;SDS011;11490;42.726;23.268;2023-07-29T12:04:58;2.15;;;0.68;;
22646;SDS011;11490;42.726;23.268;2023-07-29T12:07:24;1.17;;;0.70;;
22646;SDS011;11490;42.726;23.268;2023-07-29T12:09:50;0.93;;;0.63;;
22646;SDS011;11490;42.726;23.268;2023-07-29T12:12:15;0.50;;;0.50;;
22646;SDS011;11490;42.726;23.268;2023-07-29T12:14:47;1.65;;;0.68;;
22646;SDS011;11490;42.726;23.268;2023-07-29T12:17:12;0.95;;;0.60;;
22646;SDS011;11490;42.726;23.268;2023-07-29T12:19:38;2.97;;;0.98;;
22646;SDS011;11490;42.726;23.268;2023-07-29T12:22:06;1.75;;;0.98;;
22646;SDS011;11490;42.726;23.268;2023-07-29T12:24:33;1.50;;;0.60;;
22646;SDS011;11490;42.726;23.268;2023-07-29T12:27:01;4.40;;;0.60;;
22646;SDS011;11490;42.726;23.268;2023-07-29T12:29:26;2.25;;;0.93;;
22646;SDS011;11490;42.726;23.268;2023-07-29T12:31:59;1.67;;;0.73;;
22646;SDS011;11490;42.726;23.268;2023-07-29T12:34:29;4.30;;;0.52;;
22646;SDS011;11490;42.726;23.268;2023-07-29T12:36:56;1.73;;;0.90;;
22646;SDS011;11490;42.726;23.268;2023-07-29T12:39:27;2.97;;;0.85;;
22646;SDS011;11490;42.726;23.268;2023-07-29T12:41:55;0.82;;;0.60;;
22646;SDS011;11490;42.726;23.268;2023-07-29T12:44:25;1.55;;;0.88;;
22646;SDS011;11490;42.726;23.268;2023-07-29T12:46:56;3.53;;;1.60;;
22646;SDS011;11490;42.726;23.268;2023-07-29T12:49:21;3.15;;;1.50;;
22646;SDS011;11490;42.726;23.268;2023-07-29T12:51:47;1.52;;;0.80;;
22646;SDS011;11490;42.726;23.268;2023-07-29T12:54:13;2.05;;;1.10;;
22646;SDS011;11490;42.726;23.268;2023-07-29T12:56:38;2.67;;;1.35;;
22646;SDS011;11490;42.726;23.268;2023-07-29T12:59:04;4.15;;;1.55;;
22646;SDS011;11490;42.726;23.268;2023-07-29T13:01:30;1.67;;;1.00;;
22646;SDS011;11490;42.726;23.268;2023-07-29T13:03:55;1.27;;;0.50;;
22646;SDS011;11490;42.726;23.268;2023-07-29T13:06:21;1.42;;;0.80;;
22646;SDS011;11490;42.726;23.268;2023-07-29T13:08:47;1.08;;;0.70;;
22646;SDS011;11490;42.726;23.268;2023-07-29T13:11:13;3.95;;;0.82;;
22646;SDS011;11490;42.726;23.268;2023-07-29T13:13:39;2.47;;;1.00;;
22646;SDS011;11490;42.726;23.268;2023-07-29T13:16:05;2.72;;;1.02;;
22646;SDS011;11490;42.726;23.268;2023-07-29T13:18:31;6.47;;;1.00;;
22646;SDS011;11490;42.726;23.268;2023-07-29T13:20:56;2.10;;;1.10;;
22646;SDS011;11490;42.726;23.268;2023-07-29T13:23:22;2.33;;;1.20;;
22646;SDS011;11490;42.726;23.268;2023-07-29T13:25:47;7.68;;;0.93;;
22646;SDS011;11490;42.726;23.268;2023-07-29T13:28:13;3.28;;;0.90;;
22646;SDS011;11490;42.726;23.268;2023-07-29T13:30:39;2.03;;;0.85;;
22646;SDS011;11490;42.726;23.268;2023-07-29T13:33:08;4.13;;;1.10;;
22646;SDS011;11490;42.726;23.268;2023-07-29T13:35:33;1.45;;;0.82;;
22646;SDS011;11490;42.726;23.268;2023-07-29T13:38:00;2.20;;;1.10;;
22646;SDS011;11490;42.726;23.268;2023-07-29T13:40:26;2.03;;;1.10;;
22646;SDS011;11490;42.726;23.268;2023-07-29T13:42:52;1.63;;;0.82;;
22646;SDS011;11490;42.726;23.268;2023-07-29T13:45:17;2.05;;;1.10;;
22646;SDS011;11490;42.726;23.268;2023-07-29T13:47:43;1.92;;;1.00;;
22646;SDS011;11490;42.726;23.268;2023-07-29T13:50:09;1.65;;;0.85;;
22646;SDS011;11490;42.726;23.268;2023-07-29T13:52:35;1.95;;;1.00;;
22646;SDS011;11490;42.726;23.268;2023-07-29T13:55:01;1.65;;;0.70;;
22646;SDS011;11490;42.726;23.268;2023-07-29T13:57:30;2.10;;;1.60;;
22646;SDS011;11490;42.726;23.268;2023-07-29T13:59:56;3.05;;;1.80;;
22646;SDS011;11490;42.726;23.268;2023-07-29T14:02:22;2.22;;;0.95;;
22646;SDS011;11490;42.726;23.268;2023-07-29T14:04:47;2.80;;;1.63;;
22646;SDS011;11490;42.726;23.268;2023-07-29T14:07:12;1.63;;;1.02;;
22646;SDS011;11490;42.726;23.268;2023-07-29T14:09:38;1.15;;;0.93;;
22646;SDS011;11490;42.726;23.268;2023-07-29T14:12:03;7.88;;;1.35;;
22646;SDS011;11490;42.726;23.268;2023-07-29T14:14:29;2.10;;;1.15;;
22646;SDS011;11490;42.726;23.268;2023-07-29T14:16:55;1.42;;;1.00;;
22646;SDS011;11490;42.726;23.268;2023-07-29T14:19:20;1.92;;;1.30;;
22646;SDS011;11490;42.726;23.268;2023-07-29T14:21:46;2.60;;;1.10;;
22646;SDS011;11490;42.726;23.268;2023-07-29T14:24:11;4.95;;;1.40;;
22646;SDS011;11490;42.726;23.268;2023-07-29T14:26:36;2.67;;;0.80;;
22646;SDS011;11490;42.726;23.268;2023-07-29T14:29:02;2.03;;;1.08;;
22646;SDS011;11490;42.726;23.268;2023-07-29T14:31:27;5.05;;;1.20;;
22646;SDS011;11490;42.726;23.268;2023-07-29T14:33:52;2.25;;;1.35;;
22646;SDS011;11490;42.726;23.268;2023-07-29T14:36:18;2.03;;;1.15;;
22646;SDS011;11490;42.726;23.268;2023-07-29T14:38:43;2.40;;;1.35;;
22646;SDS011;11490;42.726;23.268;2023-07-29T14:41:09;1.83;;;1.20;;
22646;SDS011;11490;42.726;23.268;2023-07-29T14:43:34;1.95;;;1.13;;
22646;SDS011;11490;42.726;23.268;2023-07-29T14:46:00;2.03;;;1.17;;